Randolph, Illinois
Current Conditions -  °F | °C
As of 5:56 AM on Tuesday 27 Jan 2015 (Local Time) from KBMI Reporting Station
Haze Haze  
Wind Chill: 21°   Ceiling: 400
Heat Index: 30°   Visibility: 3mi
Dew Point: 29°   Wind: 10mph
Humidity: 96%   Direction: 360°N
Pressure: 30.01"   Gusts: NA
Location:  40.3419°N, 88.9792°W
Report Text: KBMI 271156Z 36009KT 3SM BR OVC004 M01/M02 A3001 RMK AO2 53026 T10111016 10000 21016 SLP180
Loading
Personal Weather Stations






























Interactive Weather Map New forecast layout! Learn more

10-Day Weather Forecast

Advertisements
Track Severe Weather on mobile